createdAt,value
2017-10-02T00:00:42.318Z,202.60
2017-10-02T00:03:08.561Z,244.87
2017-10-02T00:05:34.806Z,96.57
2017-10-02T00:08:01.240Z,68.47
2017-10-02T00:10:27.481Z,79.97
2017-10-02T00:12:53.751Z,71.37
2017-10-02T00:15:19.988Z,96.60
2017-10-02T00:17:46.360Z,71.83
2017-10-02T00:20:12.635Z,74.13
2017-10-02T00:22:38.885Z,289.83
2017-10-02T00:25:05.113Z,71.03
2017-10-02T00:27:31.487Z,74.70
2017-10-02T00:29:57.735Z,91.83
2017-10-02T00:32:23.966Z,97.30
2017-10-02T00:34:50.232Z,132.73
2017-10-02T00:37:16.496Z,193.27
2017-10-02T00:39:42.760Z,102.90
2017-10-02T00:42:09.013Z,79.37
2017-10-02T00:44:35.261Z,72.80
2017-10-02T00:47:01.508Z,98.67
2017-10-02T00:49:27.781Z,77.87
2017-10-02T00:51:54.008Z,87.33
2017-10-02T00:54:20.244Z,85.30
2017-10-02T00:56:46.492Z,320.77
2017-10-02T00:59:12.866Z,469.07
2017-10-02T01:01:39.109Z,441.27
2017-10-02T01:04:05.349Z,159.00
2017-10-02T01:06:31.585Z,82.67
2017-10-02T01:08:57.826Z,215.57
2017-10-02T01:11:24.062Z,77.87
2017-10-02T01:13:50.441Z,205.33
2017-10-02T01:16:16.674Z,163.53
2017-10-02T01:18:42.911Z,89.17
2017-10-02T01:21:09.308Z,411.83
2017-10-02T01:23:35.536Z,350.70
2017-10-02T01:26:01.776Z,163.57
2017-10-02T01:28:28.019Z,89.87
2017-10-02T01:30:54.262Z,137.17
2017-10-02T01:33:20.494Z,465.27
2017-10-02T01:35:46.740Z,163.40
2017-10-02T01:38:12.988Z,112.03
2017-10-02T01:40:39.218Z,220.07
2017-10-02T01:43:05.448Z,185.47
2017-10-02T01:45:31.686Z,132.73
2017-10-02T01:47:57.926Z,359.60
2017-10-02T01:50:24.174Z,161.73
2017-10-02T01:52:50.439Z,455.90
2017-10-02T01:55:16.664Z,272.57
2017-10-02T01:57:42.907Z,328.57
2017-10-02T02:00:09.206Z,194.00
2017-10-02T02:02:35.437Z,103.07
2017-10-02T02:05:01.660Z,71.23
2017-10-02T02:07:27.918Z,309.27
2017-10-02T02:09:54.147Z,191.07
2017-10-02T02:12:20.368Z,76.23
2017-10-02T02:14:46.636Z,94.20
2017-10-02T02:17:12.857Z,92.80
2017-10-02T02:19:39.089Z,234.77
2017-10-02T02:22:05.362Z,144.80
2017-10-02T02:24:31.597Z,126.10
2017-10-02T02:26:57.852Z,199.43
2017-10-02T02:29:24.128Z,201.97
2017-10-02T02:31:50.357Z,89.53
2017-10-02T02:34:16.595Z,137.93
2017-10-02T02:36:42.897Z,273.40
2017-10-02T02:39:09.133Z,231.57
2017-10-02T02:41:35.349Z,404.23
2017-10-02T02:44:01.628Z,180.67
2017-10-02T02:46:27.862Z,376.07
2017-10-02T02:48:54.088Z,92.50
2017-10-02T02:51:20.405Z,152.57
2017-10-02T02:53:46.629Z,52.07
2017-10-02T02:56:12.865Z,71.17
2017-10-02T02:58:39.144Z,62.20
2017-10-02T03:01:05.372Z,80.93
2017-10-02T03:03:31.592Z,96.20
2017-10-02T03:05:57.983Z,51.33
2017-10-02T03:08:24.222Z,94.53
2017-10-02T03:10:50.449Z,74.60
2017-10-02T03:13:16.717Z,55.13
2017-10-02T03:15:42.945Z,157.60
2017-10-02T03:18:09.299Z,146.83
2017-10-02T03:20:35.567Z,203.07
2017-10-02T03:23:01.787Z,428.77
2017-10-02T03:25:28.026Z,82.27
2017-10-02T03:27:54.297Z,162.33
2017-10-02T03:30:20.534Z,107.80
2017-10-02T03:32:46.753Z,114.07
2017-10-02T03:35:13.041Z,189.07
2017-10-02T03:37:39.276Z,179.37
2017-10-02T03:40:05.511Z,169.03
2017-10-02T03:42:32.009Z,145.67
2017-10-02T03:44:58.220Z,171.00
2017-10-02T03:47:24.433Z,366.43
2017-10-02T03:49:50.683Z,60.87
2017-10-02T03:52:16.968Z,267.07
2017-10-02T03:54:43.208Z,108.67
2017-10-02T03:57:09.471Z,78.57
2017-10-02T03:59:35.698Z,105.07
2017-10-02T04:02:01.931Z,174.37
2017-10-02T04:04:28.207Z,57.07
2017-10-02T04:06:54.442Z,64.73
2017-10-02T04:09:20.680Z,419.70
2017-10-02T04:11:46.950Z,106.57
2017-10-02T04:14:13.180Z,129.40
2017-10-02T04:16:39.447Z,72.03
2017-10-02T04:19:05.728Z,81.57
2017-10-02T04:21:31.955Z,85.27
2017-10-02T04:23:58.188Z,391.00
2017-10-02T04:26:24.555Z,139.83
2017-10-02T04:28:50.792Z,112.80
2017-10-02T04:31:17.033Z,98.47
2017-10-02T04:33:43.317Z,150.40
2017-10-02T04:36:09.550Z,106.80
2017-10-02T04:38:35.788Z,76.00
2017-10-02T04:41:02.063Z,71.93
2017-10-02T04:43:28.288Z,88.90
2017-10-02T04:45:54.524Z,64.83
2017-10-02T04:48:20.849Z,77.70
2017-10-02T04:50:47.106Z,116.03
2017-10-02T04:53:13.329Z,66.90
2017-10-02T04:55:39.610Z,147.90
2017-10-02T04:58:05.931Z,59.07
2017-10-02T05:00:32.164Z,80.93
2017-10-02T05:02:58.429Z,55.93
2017-10-02T05:05:24.666Z,56.73
2017-10-02T05:07:50.892Z,387.00
2017-10-02T05:10:17.279Z,74.10
2017-10-02T05:12:43.522Z,165.40
2017-10-02T05:15:09.759Z,263.87
2017-10-02T05:17:36.042Z,118.23
2017-10-02T05:20:02.271Z,83.53
2017-10-02T05:22:28.537Z,205.43
2017-10-02T05:24:54.884Z,152.93
2017-10-02T05:27:21.136Z,169.77
2017-10-02T05:29:47.359Z,65.07
2017-10-02T05:32:13.615Z,106.83
2017-10-02T05:34:39.858Z,59.23
2017-10-02T05:37:06.107Z,160.93
2017-10-02T05:39:32.437Z,47.17
2017-10-02T05:41:58.662Z,50.53
2017-10-02T05:44:25.043Z,40.73
2017-10-02T05:46:51.339Z,201.47
2017-10-02T05:49:17.589Z,48.97
2017-10-02T05:51:43.833Z,45.27
2017-10-02T05:54:10.112Z,79.97
2017-10-02T05:56:36.344Z,47.33
2017-10-02T05:59:02.572Z,47.03
2017-10-02T06:01:28.869Z,82.30
2017-10-02T06:03:55.130Z,57.87
2017-10-02T06:06:21.357Z,44.63
2017-10-02T06:08:47.622Z,40.73
2017-10-02T06:11:13.846Z,78.87
2017-10-02T06:13:40.065Z,132.60
2017-10-02T06:16:06.336Z,41.70
2017-10-02T06:18:32.677Z,41.53
2017-10-02T06:20:58.915Z,40.23
2017-10-02T06:23:25.190Z,63.87
2017-10-02T06:25:51.406Z,36.37
2017-10-02T06:28:17.624Z,34.47
2017-10-02T06:30:43.896Z,29.43
2017-10-02T06:33:10.122Z,35.13
2017-10-02T06:35:36.332Z,24.60
2017-10-02T06:38:02.605Z,54.60
2017-10-02T06:40:28.840Z,26.87
2017-10-02T06:42:55.187Z,25.07
2017-10-02T06:45:21.452Z,27.77
2017-10-02T06:47:47.687Z,37.50
2017-10-02T06:50:13.910Z,32.17
2017-10-02T06:52:40.200Z,36.00
2017-10-02T06:55:06.433Z,24.17
2017-10-02T06:57:32.661Z,22.80
2017-10-02T06:59:58.918Z,27.63
2017-10-02T07:02:25.139Z,41.17
2017-10-02T07:04:51.460Z,28.50
2017-10-02T07:07:17.718Z,23.43
2017-10-02T07:09:43.956Z,23.60
2017-10-02T07:12:10.176Z,29.40
2017-10-02T07:14:36.440Z,29.63
2017-10-02T07:17:02.680Z,23.57
2017-10-02T07:19:28.976Z,25.83
2017-10-02T07:21:55.271Z,29.80
2017-10-02T07:24:21.496Z,20.80
2017-10-02T07:26:47.739Z,24.40
2017-10-02T07:29:14.012Z,16.67
2017-10-02T07:31:40.242Z,33.37
2017-10-02T07:34:06.481Z,17.43
2017-10-02T07:36:32.762Z,19.50
2017-10-02T07:38:58.988Z,19.67
2017-10-02T07:41:25.280Z,13.53
2017-10-02T07:43:51.552Z,14.70
2017-10-02T07:46:17.778Z,13.33
2017-10-02T07:48:44.006Z,13.87
2017-10-02T07:51:10.258Z,13.80
2017-10-02T07:53:36.491Z,17.13
2017-10-02T07:56:02.722Z,17.30
2017-10-02T07:58:29.016Z,14.40
2017-10-02T08:00:55.272Z,19.13
2017-10-02T08:03:21.490Z,19.43
2017-10-02T08:05:47.750Z,23.13
2017-10-02T08:08:13.977Z,20.37
2017-10-02T08:10:40.208Z,15.43
2017-10-02T08:13:06.478Z,31.07
2017-10-02T08:15:32.740Z,27.20
2017-10-02T08:17:58.968Z,34.90
2017-10-02T08:20:25.228Z,26.87
2017-10-02T08:22:51.463Z,28.33
2017-10-02T08:25:17.714Z,28.03
2017-10-02T08:27:43.991Z,24.90
2017-10-02T08:30:10.224Z,29.83
2017-10-02T08:32:36.442Z,31.50
2017-10-02T08:35:02.707Z,21.47
2017-10-02T08:37:28.972Z,20.67
2017-10-02T08:39:55.210Z,24.93
2017-10-02T08:42:21.395Z,25.23
2017-10-02T08:44:47.574Z,18.93
2017-10-02T08:47:13.750Z,19.10
2017-10-02T08:49:39.921Z,29.37
2017-10-02T08:52:06.108Z,23.80
2017-10-02T08:54:32.289Z,21.53
2017-10-02T08:56:58.488Z,16.13
2017-10-02T08:59:24.663Z,22.83
2017-10-02T09:01:50.833Z,28.03
2017-10-02T09:04:17.019Z,19.93
2017-10-02T09:06:43.208Z,30.87
2017-10-02T09:09:09.403Z,16.43
2017-10-02T09:11:35.713Z,14.70
2017-10-02T09:14:01.891Z,27.00
2017-10-02T09:16:28.084Z,19.87
2017-10-02T09:18:54.293Z,12.60
2017-10-02T09:21:20.617Z,16.63
2017-10-02T09:23:46.809Z,28.53
2017-10-02T09:26:13.038Z,20.07
2017-10-02T09:28:39.226Z,17.93
2017-10-02T09:31:05.397Z,25.17
2017-10-02T09:33:31.627Z,14.60
2017-10-02T09:35:57.807Z,19.80
2017-10-02T09:38:23.979Z,18.30
2017-10-02T09:40:50.252Z,16.40
2017-10-02T09:43:16.422Z,20.30
2017-10-02T09:45:42.598Z,21.93
2017-10-02T09:48:08.813Z,23.33
2017-10-02T09:50:35.001Z,19.10
2017-10-02T09:53:01.185Z,12.87
2017-10-02T09:55:27.409Z,11.67
2017-10-02T09:57:53.592Z,15.80
2017-10-02T10:00:19.771Z,15.90
2017-10-02T10:02:45.993Z,12.80
2017-10-02T10:05:12.170Z,21.60
2017-10-02T10:07:38.343Z,9.90
2017-10-02T10:10:04.564Z,24.83
2017-10-02T10:12:30.729Z,19.20
2017-10-02T10:14:56.902Z,22.70
2017-10-02T10:17:23.106Z,19.30
2017-10-02T10:19:49.267Z,19.53
2017-10-02T10:22:15.438Z,17.00
2017-10-02T10:24:41.641Z,13.00
2017-10-02T10:27:07.812Z,13.70
2017-10-02T10:29:33.992Z,20.03
2017-10-02T10:32:00.269Z,14.73
2017-10-02T10:34:26.452Z,11.90
2017-10-02T10:36:52.614Z,11.10
2017-10-02T10:39:18.832Z,15.57
2017-10-02T10:41:45.015Z,14.03
2017-10-02T10:44:11.210Z,12.40
2017-10-02T10:46:37.426Z,12.00
2017-10-02T10:49:04.147Z,16.83
2017-10-02T10:51:30.318Z,15.33
2017-10-02T10:53:56.538Z,13.10
2017-10-02T10:56:22.702Z,23.43
2017-10-02T10:58:48.877Z,28.53
2017-10-02T11:01:15.078Z,13.77
2017-10-02T11:03:41.252Z,11.07
2017-10-02T11:06:07.437Z,9.97
2017-10-02T11:08:33.642Z,29.93
2017-10-02T11:10:59.829Z,25.30
2017-10-02T11:13:26.002Z,13.73
2017-10-02T11:15:52.376Z,14.60
2017-10-02T11:18:18.557Z,11.17
2017-10-02T11:20:44.739Z,13.90
2017-10-02T11:23:10.960Z,16.53
2017-10-02T11:25:37.138Z,11.47
2017-10-02T11:28:03.332Z,14.87
2017-10-02T11:30:29.565Z,11.70
2017-10-02T11:32:55.737Z,13.07
2017-10-02T11:35:22.010Z,15.83
2017-10-02T11:37:48.205Z,11.10
2017-10-02T11:40:14.394Z,15.80
2017-10-02T11:42:40.580Z,21.80
2017-10-02T11:45:06.806Z,12.13
2017-10-02T11:47:32.979Z,15.30
2017-10-02T11:49:59.165Z,17.17
2017-10-02T11:52:25.382Z,10.97
2017-10-02T11:54:51.558Z,18.73
2017-10-02T11:57:17.726Z,9.03
2017-10-02T11:59:43.939Z,15.27
2017-10-02T12:02:10.128Z,12.77
2017-10-02T12:04:36.321Z,17.37
2017-10-02T12:07:02.526Z,14.70
2017-10-02T12:09:28.720Z,14.53
2017-10-02T12:11:55.024Z,12.27
2017-10-02T12:14:21.230Z,12.83
2017-10-02T12:16:47.416Z,16.00
2017-10-02T12:19:13.586Z,15.33
2017-10-02T12:21:40.137Z,10.73
2017-10-02T12:24:06.332Z,10.33
2017-10-02T12:26:32.515Z,11.37
2017-10-02T12:28:58.817Z,13.00
2017-10-02T12:31:24.998Z,10.73
2017-10-02T12:33:51.180Z,13.00
2017-10-02T12:36:17.415Z,10.73
2017-10-02T12:38:43.608Z,17.10
2017-10-02T12:41:09.965Z,15.03
2017-10-02T12:43:36.207Z,14.30
2017-10-02T12:46:02.421Z,9.30
2017-10-02T12:48:28.591Z,12.03
2017-10-02T12:50:54.812Z,11.40
2017-10-02T12:53:20.987Z,15.53
2017-10-02T12:55:47.170Z,15.50
2017-10-02T12:58:13.401Z,12.40
2017-10-02T13:00:39.683Z,13.03
2017-10-02T13:03:05.868Z,20.47
2017-10-02T13:05:32.072Z,20.53
2017-10-02T13:07:58.242Z,12.50
2017-10-02T13:10:24.619Z,9.17
2017-10-02T13:12:50.852Z,12.70
2017-10-02T13:15:17.045Z,20.13
2017-10-02T13:17:43.243Z,13.70
2017-10-02T13:20:09.511Z,13.57
2017-10-02T13:22:35.695Z,14.90
2017-10-02T13:25:01.862Z,12.43
2017-10-02T13:27:28.070Z,12.20
2017-10-02T13:29:54.385Z,12.07
2017-10-02T13:32:20.553Z,12.57
2017-10-02T13:34:46.771Z,19.73
2017-10-02T13:37:12.942Z,17.10
2017-10-02T13:39:39.106Z,13.80
2017-10-02T13:42:05.373Z,14.33
2017-10-02T13:44:31.539Z,13.07
2017-10-02T13:46:57.828Z,22.20
2017-10-02T13:49:24.069Z,19.63
2017-10-02T13:51:50.279Z,20.00
2017-10-02T13:54:16.472Z,15.80
2017-10-02T13:56:42.715Z,16.87
2017-10-02T13:59:08.884Z,13.93
2017-10-02T14:01:35.069Z,14.33
2017-10-02T14:04:01.299Z,13.90
2017-10-02T14:06:27.700Z,26.77
2017-10-02T14:08:54.060Z,15.90
2017-10-02T14:11:20.295Z,14.20
2017-10-02T14:13:46.473Z,24.63
2017-10-02T14:16:12.782Z,13.30
2017-10-02T14:18:39.012Z,11.57
2017-10-02T14:21:05.190Z,15.30
2017-10-02T14:23:31.363Z,17.87
2017-10-02T14:25:57.573Z,14.40
2017-10-02T14:28:23.938Z,25.53
2017-10-02T14:30:50.114Z,17.33
2017-10-02T14:33:16.337Z,15.20
2017-10-02T14:35:42.527Z,14.63
2017-10-02T14:38:08.737Z,13.33
2017-10-02T14:40:35.064Z,20.47
2017-10-02T14:43:01.243Z,18.03
2017-10-02T14:45:27.419Z,34.40
2017-10-02T14:47:53.614Z,21.90
2017-10-02T14:50:19.784Z,27.03
2017-10-02T14:52:45.966Z,18.17
2017-10-02T14:55:12.219Z,23.03
2017-10-02T14:57:38.396Z,27.13
2017-10-02T15:00:04.991Z,21.23
2017-10-02T15:02:31.239Z,17.50
2017-10-02T15:04:57.408Z,21.63
2017-10-02T15:07:23.698Z,26.90
2017-10-02T15:09:49.905Z,34.03
2017-10-02T15:12:16.077Z,38.87
2017-10-02T15:14:42.260Z,41.00
2017-10-02T15:17:08.490Z,30.23
2017-10-02T15:19:34.648Z,27.63
2017-10-02T15:22:00.816Z,21.27
2017-10-02T15:24:27.037Z,20.50
2017-10-02T15:26:53.208Z,22.33
2017-10-02T15:29:19.406Z,36.80
2017-10-02T15:31:45.614Z,30.20
2017-10-02T15:34:11.809Z,34.90
2017-10-02T15:36:38.032Z,37.93
2017-10-02T15:39:04.240Z,23.30
2017-10-02T15:41:30.419Z,28.17
2017-10-02T15:43:56.647Z,46.53
2017-10-02T15:46:22.870Z,31.77
2017-10-02T15:48:49.045Z,44.63
2017-10-02T15:51:15.213Z,42.33
2017-10-02T15:53:41.424Z,41.13
2017-10-02T15:56:07.590Z,70.73
2017-10-02T15:58:33.770Z,74.60
2017-10-02T16:01:00.013Z,48.23
2017-10-02T16:03:26.196Z,40.57
2017-10-02T16:05:52.374Z,48.17
2017-10-02T16:08:18.592Z,32.13
2017-10-02T16:10:44.765Z,50.47
2017-10-02T16:13:10.956Z,35.20
2017-10-02T16:15:37.179Z,55.27
2017-10-02T16:18:03.350Z,46.40
2017-10-02T16:20:29.521Z,42.43
2017-10-02T16:22:55.742Z,42.23
2017-10-02T16:25:21.928Z,54.53
2017-10-02T16:27:48.116Z,53.27
2017-10-02T16:30:14.323Z,96.87
2017-10-02T16:32:40.494Z,90.90
2017-10-02T16:35:06.673Z,39.73
2017-10-02T16:37:32.885Z,44.17
2017-10-02T16:39:59.061Z,49.77
2017-10-02T16:42:25.222Z,40.77
2017-10-02T16:44:51.423Z,57.67
2017-10-02T16:47:17.596Z,70.83
2017-10-02T16:49:43.769Z,61.10
2017-10-02T16:52:09.997Z,38.13
2017-10-02T16:54:36.180Z,40.63
2017-10-02T16:57:02.396Z,66.23
2017-10-02T16:59:28.596Z,81.33
2017-10-02T17:01:54.763Z,59.13
2017-10-02T17:04:20.930Z,70.90
2017-10-02T17:06:47.156Z,34.07
2017-10-02T17:09:13.364Z,27.67
2017-10-02T17:11:39.585Z,41.93
2017-10-02T17:14:05.819Z,49.37
2017-10-02T17:16:32.123Z,45.87
2017-10-02T17:18:58.291Z,55.07
2017-10-02T17:21:24.508Z,34.93
2017-10-02T17:23:50.679Z,35.43
2017-10-02T17:26:16.929Z,28.83
2017-10-02T17:28:43.321Z,42.07
2017-10-02T17:31:09.482Z,35.67
2017-10-02T17:33:35.660Z,37.70
2017-10-02T17:36:01.857Z,32.50
2017-10-02T17:38:28.036Z,39.60
2017-10-02T17:40:54.226Z,26.37
2017-10-02T17:45:52.991Z,31.93
2017-10-02T17:48:19.194Z,37.97
2017-10-02T17:50:45.373Z,54.00
2017-10-02T17:53:11.546Z,48.30
2017-10-02T17:55:37.772Z,46.03
2017-10-02T17:58:03.953Z,43.35
2017-10-02T18:00:30.118Z,42.00
2017-10-02T18:02:56.366Z,28.80
2017-10-02T18:05:22.552Z,43.87
2017-10-02T18:07:48.746Z,46.10
2017-10-02T18:10:15.044Z,43.53
2017-10-02T18:12:41.227Z,48.73
2017-10-02T18:15:07.535Z,38.67
2017-10-02T18:17:33.742Z,34.67
2017-10-02T18:19:59.911Z,40.17
2017-10-02T18:22:26.089Z,29.50
2017-10-02T18:24:52.302Z,48.27
2017-10-02T18:27:18.503Z,34.10
2017-10-02T18:29:44.679Z,29.67
2017-10-02T18:32:10.887Z,39.75
2017-10-02T18:34:37.047Z,34.97
2017-10-02T18:37:03.243Z,34.20
2017-10-02T18:39:29.491Z,27.50
2017-10-02T18:41:55.675Z,34.40
2017-10-02T18:44:22.666Z,35.83
2017-10-02T18:46:48.872Z,40.63
2017-10-02T18:49:15.233Z,42.97
2017-10-02T18:51:41.446Z,37.80
2017-10-02T18:54:10.563Z,38.73
2017-10-02T18:56:36.860Z,42.07
2017-10-02T18:59:04.021Z,39.73
2017-10-02T19:01:30.224Z,34.00
2017-10-02T19:03:56.422Z,32.20
2017-10-02T19:06:22.715Z,34.83
2017-10-02T19:08:48.904Z,47.80
2017-10-02T19:13:50.098Z,38.40
2017-10-02T19:16:16.268Z,44.63
2017-10-02T19:18:42.457Z,45.20
2017-10-02T19:21:08.643Z,39.10
2017-10-02T19:23:35.034Z,45.93
2017-10-02T19:26:01.239Z,32.63
2017-10-02T19:28:27.473Z,32.70
2017-10-02T19:30:53.650Z,42.40
2017-10-02T19:33:19.855Z,39.47
2017-10-02T19:35:46.056Z,28.70
2017-10-02T19:38:12.247Z,41.23
2017-10-02T19:40:38.490Z,36.50
2017-10-02T19:43:04.652Z,36.10
2017-10-02T19:45:30.832Z,29.60
2017-10-02T19:47:57.112Z,32.30
2017-10-02T19:50:23.350Z,31.90
2017-10-02T19:52:49.520Z,39.23
2017-10-02T19:55:15.747Z,33.23
2017-10-02T19:57:41.941Z,28.83
2017-10-02T20:00:08.122Z,35.40
2017-10-02T20:02:34.489Z,32.27
2017-10-02T20:05:00.697Z,33.63
2017-10-02T20:07:26.918Z,37.27
2017-10-02T20:09:53.131Z,29.53
2017-10-02T20:12:19.311Z,29.00
2017-10-02T20:14:45.489Z,29.73
2017-10-02T20:17:11.680Z,27.70
2017-10-02T20:19:37.875Z,38.13
2017-10-02T20:22:04.227Z,39.73
2017-10-02T20:24:30.420Z,48.57
2017-10-02T20:26:57.354Z,44.77
2017-10-02T20:29:23.593Z,45.63
2017-10-02T20:31:49.962Z,33.57
2017-10-02T20:34:16.150Z,32.67
2017-10-02T20:36:43.496Z,35.10
2017-10-02T20:39:09.670Z,39.07
2017-10-02T20:41:35.843Z,45.60
2017-10-02T20:44:02.037Z,37.73
2017-10-02T20:46:28.274Z,32.10
2017-10-02T20:48:54.449Z,51.07
2017-10-02T20:51:20.675Z,36.70
2017-10-02T20:53:53.460Z,39.20
2017-10-02T20:56:19.636Z,34.92
2017-10-02T20:58:45.864Z,41.00
2017-10-02T21:01:13.388Z,34.67
2017-10-02T21:03:39.597Z,38.77
2017-10-02T21:06:05.825Z,35.43
2017-10-02T21:08:32.015Z,32.30
2017-10-02T21:10:58.217Z,40.07
2017-10-02T21:13:24.441Z,30.73
2017-10-02T21:15:50.627Z,42.23
2017-10-02T21:18:16.826Z,31.70
2017-10-02T21:20:43.062Z,39.07
2017-10-02T21:25:53.667Z,32.33
2017-10-02T21:28:19.944Z,32.50
2017-10-02T21:30:46.140Z,43.47
2017-10-02T21:33:12.370Z,36.20
2017-10-02T21:35:38.553Z,35.97
2017-10-02T21:38:04.750Z,33.17
2017-10-02T21:40:30.967Z,29.53
2017-10-02T21:42:57.166Z,31.67
2017-10-02T21:45:23.371Z,47.63
2017-10-02T21:47:50.551Z,32.57
2017-10-02T21:50:16.764Z,29.10
2017-10-02T21:52:42.955Z,33.47
2017-10-02T21:55:09.183Z,38.57
2017-10-02T21:57:35.368Z,33.30
2017-10-02T22:00:01.566Z,37.87
2017-10-02T22:02:27.807Z,27.93
2017-10-02T22:04:54.000Z,34.23
2017-10-02T22:07:20.183Z,34.70
2017-10-02T22:09:46.393Z,32.80
2017-10-02T22:12:12.569Z,42.60
2017-10-02T22:14:38.739Z,40.73
2017-10-02T22:17:04.958Z,45.90
2017-10-02T22:19:31.146Z,33.57
2017-10-02T22:21:57.356Z,38.90
2017-10-02T22:24:23.597Z,35.10
2017-10-02T22:26:49.790Z,44.13
2017-10-02T22:29:15.976Z,53.97
2017-10-02T22:31:42.237Z,39.50
2017-10-02T22:34:08.431Z,47.70
2017-10-02T22:36:34.624Z,50.53
2017-10-02T22:39:00.867Z,49.80
2017-10-02T22:41:27.060Z,51.43
2017-10-02T22:43:53.241Z,38.97
2017-10-02T22:46:19.477Z,32.53
2017-10-02T22:48:45.667Z,33.40
2017-10-02T22:51:11.851Z,30.90
2017-10-02T22:53:38.080Z,30.07
2017-10-02T22:56:04.259Z,39.17
2017-10-02T22:58:30.457Z,34.60
2017-10-02T23:00:56.709Z,34.43
2017-10-02T23:03:22.893Z,36.30
2017-10-02T23:05:49.078Z,36.80
2017-10-02T23:08:15.307Z,36.40
2017-10-02T23:10:41.509Z,37.83
2017-10-02T23:13:07.702Z,35.30
2017-10-02T23:15:33.940Z,40.67
2017-10-02T23:18:00.128Z,32.33
2017-10-02T23:20:26.322Z,32.77
2017-10-02T23:22:52.555Z,36.33
2017-10-02T23:25:18.742Z,38.03
2017-10-02T23:27:44.940Z,29.43
2017-10-02T23:30:11.186Z,39.27
2017-10-02T23:32:37.394Z,39.40
2017-10-02T23:35:03.594Z,29.53
2017-10-02T23:37:29.822Z,33.67
2017-10-02T23:39:56.008Z,26.63
2017-10-02T23:42:22.196Z,30.70
2017-10-02T23:44:48.414Z,29.47
2017-10-02T23:47:14.613Z,41.47
2017-10-02T23:49:40.786Z,35.13
2017-10-02T23:52:07.003Z,36.87
2017-10-02T23:54:33.219Z,37.33
2017-10-02T23:56:59.402Z,37.57
2017-10-02T23:59:25.630Z,35.77
